sensor_id;sensor_type;location;lat;lon;timestamp;temperature;humidity
13652;DHT22;6899;51.546;6.912;2024-02-04T00:01:51;9.60;99.90
13652;DHT22;6899;51.546;6.912;2024-02-04T00:04:18;9.60;99.90
13652;DHT22;6899;51.546;6.912;2024-02-04T00:06:46;9.60;99.90
13652;DHT22;6899;51.546;6.912;2024-02-04T00:09:13;9.60;99.90
13652;DHT22;6899;51.546;6.912;2024-02-04T00:11:40;9.60;99.90
13652;DHT22;6899;51.546;6.912;2024-02-04T00:14:06;9.60;99.90
13652;DHT22;6899;51.546;6.912;2024-02-04T00:16:34;9.60;99.90
13652;DHT22;6899;51.546;6.912;2024-02-04T00:19:01;9.60;99.90
13652;DHT22;6899;51.546;6.912;2024-02-04T00:21:27;9.60;99.90
13652;DHT22;6899;51.546;6.912;2024-02-04T00:23:55;9.60;99.90
13652;DHT22;6899;51.546;6.912;2024-02-04T00:26:22;9.60;99.90
13652;DHT22;6899;51.546;6.912;2024-02-04T00:28:49;9.50;99.90
13652;DHT22;6899;51.546;6.912;2024-02-04T00:31:16;9.50;99.90
13652;DHT22;6899;51.546;6.912;2024-02-04T00:33:42;9.50;99.90
13652;DHT22;6899;51.546;6.912;2024-02-04T00:36:09;9.40;99.90
13652;DHT22;6899;51.546;6.912;2024-02-04T00:38:36;9.40;99.90
13652;DHT22;6899;51.546;6.912;2024-02-04T00:41:04;9.40;99.90
13652;DHT22;6899;51.546;6.912;2024-02-04T00:43:31;9.50;99.90
13652;DHT22;6899;51.546;6.912;2024-02-04T00:45:57;9.40;99.90
13652;DHT22;6899;51.546;6.912;2024-02-04T00:48:25;9.50;99.90
13652;DHT22;6899;51.546;6.912;2024-02-04T00:50:52;9.50;99.90
13652;DHT22;6899;51.546;6.912;2024-02-04T00:53:19;9.50;99.90
13652;DHT22;6899;51.546;6.912;2024-02-04T00:55:45;9.50;99.90
13652;DHT22;6899;51.546;6.912;2024-02-04T00:58:14;9.50;99.90
13652;DHT22;6899;51.546;6.912;2024-02-04T01:00:40;9.40;99.90
13652;DHT22;6899;51.546;6.912;2024-02-04T01:03:07;9.50;99.90
13652;DHT22;6899;51.546;6.912;2024-02-04T01:05:34;9.40;99.90
13652;DHT22;6899;51.546;6.912;2024-02-04T01:08:00;9.40;99.90
13652;DHT22;6899;51.546;6.912;2024-02-04T01:10:27;9.40;99.90
13652;DHT22;6899;51.546;6.912;2024-02-04T01:12:54;9.40;99.90
13652;DHT22;6899;51.546;6.912;2024-02-04T01:15:22;9.40;99.90
13652;DHT22;6899;51.546;6.912;2024-02-04T01:17:49;9.40;99.90
13652;DHT22;6899;51.546;6.912;2024-02-04T01:20:17;9.40;99.90
13652;DHT22;6899;51.546;6.912;2024-02-04T01:22:43;9.40;99.90
13652;DHT22;6899;51.546;6.912;2024-02-04T01:25:10;9.40;99.90
13652;DHT22;6899;51.546;6.912;2024-02-04T01:27:37;9.40;99.90
13652;DHT22;6899;51.546;6.912;2024-02-04T01:30:05;9.40;99.90
13652;DHT22;6899;51.546;6.912;2024-02-04T01:32:34;9.40;99.90
13652;DHT22;6899;51.546;6.912;2024-02-04T01:35:00;9.40;99.90
13652;DHT22;6899;51.546;6.912;2024-02-04T01:37:27;9.40;99.90
13652;DHT22;6899;51.546;6.912;2024-02-04T01:39:54;9.50;99.90
13652;DHT22;6899;51.546;6.912;2024-02-04T01:42:21;9.50;99.90
13652;DHT22;6899;51.546;6.912;2024-02-04T01:44:48;9.50;99.90
13652;DHT22;6899;51.546;6.912;2024-02-04T01:47:14;9.50;99.90
13652;DHT22;6899;51.546;6.912;2024-02-04T01:49:43;9.50;99.90
13652;DHT22;6899;51.546;6.912;2024-02-04T01:52:10;9.50;99.90
13652;DHT22;6899;51.546;6.912;2024-02-04T01:54:38;9.50;99.90
13652;DHT22;6899;51.546;6.912;2024-02-04T01:57:06;9.60;99.90
13652;DHT22;6899;51.546;6.912;2024-02-04T01:59:33;9.60;99.90
13652;DHT22;6899;51.546;6.912;2024-02-04T02:02:00;9.60;99.90
13652;DHT22;6899;51.546;6.912;2024-02-04T02:04:27;9.60;99.90
13652;DHT22;6899;51.546;6.912;2024-02-04T02:06:55;9.60;99.90
13652;DHT22;6899;51.546;6.912;2024-02-04T02:09:24;9.60;99.90
13652;DHT22;6899;51.546;6.912;2024-02-04T02:11:56;9.60;99.90
13652;DHT22;6899;51.546;6.912;2024-02-04T02:14:28;9.60;99.90
13652;DHT22;6899;51.546;6.912;2024-02-04T02:16:57;9.60;99.90
13652;DHT22;6899;51.546;6.912;2024-02-04T02:19:35;9.60;99.90
13652;DHT22;6899;51.546;6.912;2024-02-04T02:22:19;9.60;99.90
13652;DHT22;6899;51.546;6.912;2024-02-04T02:24:52;9.60;99.90
13652;DHT22;6899;51.546;6.912;2024-02-04T02:27:18;9.60;99.90
13652;DHT22;6899;51.546;6.912;2024-02-04T02:29:45;9.60;99.90
13652;DHT22;6899;51.546;6.912;2024-02-04T02:32:12;9.60;99.90
13652;DHT22;6899;51.546;6.912;2024-02-04T02:34:39;9.60;99.90
13652;DHT22;6899;51.546;6.912;2024-02-04T02:37:16;9.70;99.90
13652;DHT22;6899;51.546;6.912;2024-02-04T02:39:52;9.60;99.90
13652;DHT22;6899;51.546;6.912;2024-02-04T02:42:22;9.60;99.90
13652;DHT22;6899;51.546;6.912;2024-02-04T02:44:50;9.60;99.90
13652;DHT22;6899;51.546;6.912;2024-02-04T02:47:19;9.60;99.90
13652;DHT22;6899;51.546;6.912;2024-02-04T02:49:47;9.60;99.90
13652;DHT22;6899;51.546;6.912;2024-02-04T02:52:14;9.60;99.90
13652;DHT22;6899;51.546;6.912;2024-02-04T02:54:41;9.60;99.90
13652;DHT22;6899;51.546;6.912;2024-02-04T02:57:09;9.60;99.90
13652;DHT22;6899;51.546;6.912;2024-02-04T02:59:35;9.60;99.90
13652;DHT22;6899;51.546;6.912;2024-02-04T03:02:02;9.60;99.90
13652;DHT22;6899;51.546;6.912;2024-02-04T03:04:29;9.60;99.90
13652;DHT22;6899;51.546;6.912;2024-02-04T03:06:56;9.60;99.90
13652;DHT22;6899;51.546;6.912;2024-02-04T03:09:23;9.60;99.90
13652;DHT22;6899;51.546;6.912;2024-02-04T03:11:49;9.50;99.90
13652;DHT22;6899;51.546;6.912;2024-02-04T03:14:18;9.50;99.90
13652;DHT22;6899;51.546;6.912;2024-02-04T03:16:45;9.50;99.90
13652;DHT22;6899;51.546;6.912;2024-02-04T03:19:12;9.40;99.90
13652;DHT22;6899;51.546;6.912;2024-02-04T03:21:38;9.50;99.90
13652;DHT22;6899;51.546;6.912;2024-02-04T03:24:05;9.50;99.90
13652;DHT22;6899;51.546;6.912;2024-02-04T03:26:32;9.50;99.90
13652;DHT22;6899;51.546;6.912;2024-02-04T03:28:59;9.50;99.90
13652;DHT22;6899;51.546;6.912;2024-02-04T03:31:27;9.50;99.90
13652;DHT22;6899;51.546;6.912;2024-02-04T03:33:54;9.60;99.90
13652;DHT22;6899;51.546;6.912;2024-02-04T03:36:22;9.50;99.90
13652;DHT22;6899;51.546;6.912;2024-02-04T03:38:49;9.50;99.90
13652;DHT22;6899;51.546;6.912;2024-02-04T03:41:16;9.50;99.90
13652;DHT22;6899;51.546;6.912;2024-02-04T03:43:43;9.50;99.90
13652;DHT22;6899;51.546;6.912;2024-02-04T03:46:13;9.50;99.90
13652;DHT22;6899;51.546;6.912;2024-02-04T03:48:41;9.60;99.90
13652;DHT22;6899;51.546;6.912;2024-02-04T03:51:08;9.50;99.90
13652;DHT22;6899;51.546;6.912;2024-02-04T03:53:34;9.60;99.90
13652;DHT22;6899;51.546;6.912;2024-02-04T03:56:01;9.60;99.90
13652;DHT22;6899;51.546;6.912;2024-02-04T03:58:28;9.60;99.90
13652;DHT22;6899;51.546;6.912;2024-02-04T04:00:56;9.60;99.90
13652;DHT22;6899;51.546;6.912;2024-02-04T04:03:22;9.60;99.90
13652;DHT22;6899;51.546;6.912;2024-02-04T04:05:51;9.60;99.90
13652;DHT22;6899;51.546;6.912;2024-02-04T04:08:17;9.60;99.90
13652;DHT22;6899;51.546;6.912;2024-02-04T04:10:44;9.60;99.90
13652;DHT22;6899;51.546;6.912;2024-02-04T04:13:11;9.60;99.90
13652;DHT22;6899;51.546;6.912;2024-02-04T04:15:38;9.60;99.90
13652;DHT22;6899;51.546;6.912;2024-02-04T04:18:07;9.70;99.90
13652;DHT22;6899;51.546;6.912;2024-02-04T04:20:36;9.70;99.90
13652;DHT22;6899;51.546;6.912;2024-02-04T04:23:04;9.70;99.90
13652;DHT22;6899;51.546;6.912;2024-02-04T04:25:31;9.70;99.90
13652;DHT22;6899;51.546;6.912;2024-02-04T04:27:58;9.70;99.90
13652;DHT22;6899;51.546;6.912;2024-02-04T04:30:25;9.70;99.90
13652;DHT22;6899;51.546;6.912;2024-02-04T04:32:52;9.70;99.90
13652;DHT22;6899;51.546;6.912;2024-02-04T04:35:18;9.70;99.90
13652;DHT22;6899;51.546;6.912;2024-02-04T04:37:45;9.70;99.90
13652;DHT22;6899;51.546;6.912;2024-02-04T04:40:13;9.70;99.90
13652;DHT22;6899;51.546;6.912;2024-02-04T04:42:40;9.70;99.90
13652;DHT22;6899;51.546;6.912;2024-02-04T04:45:07;9.70;99.90
13652;DHT22;6899;51.546;6.912;2024-02-04T04:47:34;9.70;99.90
13652;DHT22;6899;51.546;6.912;2024-02-04T04:50:01;9.70;99.90
13652;DHT22;6899;51.546;6.912;2024-02-04T04:52:28;9.70;99.90
13652;DHT22;6899;51.546;6.912;2024-02-04T04:54:55;9.70;99.90
13652;DHT22;6899;51.546;6.912;2024-02-04T04:57:23;9.70;99.90
13652;DHT22;6899;51.546;6.912;2024-02-04T04:59:50;9.70;99.90
13652;DHT22;6899;51.546;6.912;2024-02-04T05:02:16;9.60;99.90
13652;DHT22;6899;51.546;6.912;2024-02-04T05:04:44;9.60;99.90
13652;DHT22;6899;51.546;6.912;2024-02-04T05:07:10;9.60;99.90
13652;DHT22;6899;51.546;6.912;2024-02-04T05:09:37;9.60;99.90
13652;DHT22;6899;51.546;6.912;2024-02-04T05:12:05;9.50;99.90
13652;DHT22;6899;51.546;6.912;2024-02-04T05:14:34;9.50;99.90
13652;DHT22;6899;51.546;6.912;2024-02-04T05:17:00;9.50;99.90
13652;DHT22;6899;51.546;6.912;2024-02-04T05:19:27;9.50;99.90
13652;DHT22;6899;51.546;6.912;2024-02-04T05:21:54;9.50;99.90
13652;DHT22;6899;51.546;6.912;2024-02-04T05:24:21;9.50;99.90
13652;DHT22;6899;51.546;6.912;2024-02-04T05:26:48;9.50;99.90
13652;DHT22;6899;51.546;6.912;2024-02-04T05:29:14;9.50;99.90
13652;DHT22;6899;51.546;6.912;2024-02-04T05:31:43;9.40;99.90
13652;DHT22;6899;51.546;6.912;2024-02-04T05:34:10;9.40;99.90
13652;DHT22;6899;51.546;6.912;2024-02-04T05:36:37;9.30;99.90
13652;DHT22;6899;51.546;6.912;2024-02-04T05:39:10;9.40;99.90
13652;DHT22;6899;51.546;6.912;2024-02-04T05:41:37;9.40;99.90
13652;DHT22;6899;51.546;6.912;2024-02-04T05:44:04;9.40;99.90
13652;DHT22;6899;51.546;6.912;2024-02-04T05:46:31;9.40;99.90
13652;DHT22;6899;51.546;6.912;2024-02-04T05:48:59;9.40;99.90
13652;DHT22;6899;51.546;6.912;2024-02-04T05:51:28;9.40;99.90
13652;DHT22;6899;51.546;6.912;2024-02-04T05:53:54;9.40;99.90
13652;DHT22;6899;51.546;6.912;2024-02-04T05:56:21;9.40;99.90
13652;DHT22;6899;51.546;6.912;2024-02-04T05:58:48;9.40;99.90
13652;DHT22;6899;51.546;6.912;2024-02-04T06:01:15;9.50;99.90
13652;DHT22;6899;51.546;6.912;2024-02-04T06:03:42;9.40;99.90
13652;DHT22;6899;51.546;6.912;2024-02-04T06:06:14;9.40;99.90
13652;DHT22;6899;51.546;6.912;2024-02-04T06:08:41;9.40;99.90
13652;DHT22;6899;51.546;6.912;2024-02-04T06:11:09;9.40;99.90
13652;DHT22;6899;51.546;6.912;2024-02-04T06:13:36;9.40;99.90
13652;DHT22;6899;51.546;6.912;2024-02-04T06:16:04;9.50;99.90
13652;DHT22;6899;51.546;6.912;2024-02-04T06:18:31;9.50;99.90
13652;DHT22;6899;51.546;6.912;2024-02-04T06:20:57;9.50;99.90
13652;DHT22;6899;51.546;6.912;2024-02-04T06:23:25;9.50;99.90
13652;DHT22;6899;51.546;6.912;2024-02-04T06:25:52;9.50;99.90
13652;DHT22;6899;51.546;6.912;2024-02-04T06:28:19;9.50;99.90
13652;DHT22;6899;51.546;6.912;2024-02-04T06:30:46;9.50;99.90
13652;DHT22;6899;51.546;6.912;2024-02-04T06:33:12;9.50;99.90
13652;DHT22;6899;51.546;6.912;2024-02-04T06:35:39;9.60;99.90
13652;DHT22;6899;51.546;6.912;2024-02-04T06:38:06;9.60;99.90
13652;DHT22;6899;51.546;6.912;2024-02-04T06:40:34;9.60;99.90
13652;DHT22;6899;51.546;6.912;2024-02-04T06:43:00;9.60;99.90
13652;DHT22;6899;51.546;6.912;2024-02-04T06:45:27;9.60;99.90
13652;DHT22;6899;51.546;6.912;2024-02-04T06:47:54;9.60;99.90
13652;DHT22;6899;51.546;6.912;2024-02-04T06:50:21;9.60;99.90
13652;DHT22;6899;51.546;6.912;2024-02-04T06:52:48;9.60;99.90
13652;DHT22;6899;51.546;6.912;2024-02-04T06:55:14;9.60;99.90
13652;DHT22;6899;51.546;6.912;2024-02-04T06:57:42;9.60;99.90
13652;DHT22;6899;51.546;6.912;2024-02-04T07:00:10;9.60;99.90
13652;DHT22;6899;51.546;6.912;2024-02-04T07:02:37;9.60;99.90
13652;DHT22;6899;51.546;6.912;2024-02-04T07:05:05;9.60;99.90
13652;DHT22;6899;51.546;6.912;2024-02-04T07:07:31;9.60;99.90
13652;DHT22;6899;51.546;6.912;2024-02-04T07:10:00;9.60;99.90
13652;DHT22;6899;51.546;6.912;2024-02-04T07:12:27;9.60;99.90
13652;DHT22;6899;51.546;6.912;2024-02-04T07:14:55;9.60;99.90
13652;DHT22;6899;51.546;6.912;2024-02-04T07:17:22;9.60;99.90
13652;DHT22;6899;51.546;6.912;2024-02-04T07:19:49;9.60;99.90
13652;DHT22;6899;51.546;6.912;2024-02-04T07:22:15;9.60;99.90
13652;DHT22;6899;51.546;6.912;2024-02-04T07:24:42;9.60;99.90
13652;DHT22;6899;51.546;6.912;2024-02-04T07:27:09;9.60;99.90
13652;DHT22;6899;51.546;6.912;2024-02-04T07:29:36;9.70;99.90
13652;DHT22;6899;51.546;6.912;2024-02-04T07:32:04;9.60;99.90
13652;DHT22;6899;51.546;6.912;2024-02-04T07:34:31;9.60;99.90
13652;DHT22;6899;51.546;6.912;2024-02-04T07:36:58;9.60;99.90
13652;DHT22;6899;51.546;6.912;2024-02-04T07:39:24;9.70;99.90
13652;DHT22;6899;51.546;6.912;2024-02-04T07:41:51;9.60;99.90
13652;DHT22;6899;51.546;6.912;2024-02-04T07:44:19;9.70;99.90
13652;DHT22;6899;51.546;6.912;2024-02-04T07:46:46;9.70;99.90
13652;DHT22;6899;51.546;6.912;2024-02-04T07:49:14;9.70;99.90
13652;DHT22;6899;51.546;6.912;2024-02-04T07:51:41;9.70;99.90
13652;DHT22;6899;51.546;6.912;2024-02-04T07:54:07;9.70;99.90
13652;DHT22;6899;51.546;6.912;2024-02-04T07:56:34;9.70;99.90
13652;DHT22;6899;51.546;6.912;2024-02-04T07:59:01;9.80;99.90
13652;DHT22;6899;51.546;6.912;2024-02-04T08:01:29;9.80;99.90
13652;DHT22;6899;51.546;6.912;2024-02-04T08:03:56;9.80;99.90
13652;DHT22;6899;51.546;6.912;2024-02-04T08:06:24;9.80;99.90
13652;DHT22;6899;51.546;6.912;2024-02-04T08:08:51;9.80;99.90
13652;DHT22;6899;51.546;6.912;2024-02-04T08:11:18;9.80;99.90
13652;DHT22;6899;51.546;6.912;2024-02-04T08:13:44;9.80;99.90
13652;DHT22;6899;51.546;6.912;2024-02-04T08:16:11;9.80;99.90
13652;DHT22;6899;51.546;6.912;2024-02-04T08:18:39;9.80;99.90
13652;DHT22;6899;51.546;6.912;2024-02-04T08:21:05;9.80;99.90
13652;DHT22;6899;51.546;6.912;2024-02-04T08:23:34;9.80;99.90
13652;DHT22;6899;51.546;6.912;2024-02-04T08:26:01;9.90;99.90
13652;DHT22;6899;51.546;6.912;2024-02-04T08:28:27;9.90;99.90
13652;DHT22;6899;51.546;6.912;2024-02-04T08:30:55;9.90;99.90
13652;DHT22;6899;51.546;6.912;2024-02-04T08:33:21;9.90;99.90
13652;DHT22;6899;51.546;6.912;2024-02-04T08:35:48;9.80;99.90
13652;DHT22;6899;51.546;6.912;2024-02-04T08:38:15;9.80;99.90
13652;DHT22;6899;51.546;6.912;2024-02-04T08:40:43;9.90;99.90
13652;DHT22;6899;51.546;6.912;2024-02-04T08:43:10;9.90;99.90
13652;DHT22;6899;51.546;6.912;2024-02-04T08:45:37;9.90;99.90
13652;DHT22;6899;51.546;6.912;2024-02-04T08:48:04;9.90;99.90
13652;DHT22;6899;51.546;6.912;2024-02-04T08:50:31;9.90;99.90
13652;DHT22;6899;51.546;6.912;2024-02-04T08:52:58;9.90;99.90
13652;DHT22;6899;51.546;6.912;2024-02-04T08:55:24;9.90;99.90
13652;DHT22;6899;51.546;6.912;2024-02-04T08:57:52;9.90;99.90
13652;DHT22;6899;51.546;6.912;2024-02-04T09:00:20;9.90;99.90
13652;DHT22;6899;51.546;6.912;2024-02-04T09:02:47;9.80;99.90
13652;DHT22;6899;51.546;6.912;2024-02-04T09:05:13;9.70;99.90
13652;DHT22;6899;51.546;6.912;2024-02-04T09:07:41;9.70;99.90
13652;DHT22;6899;51.546;6.912;2024-02-04T09:10:08;9.70;99.90
13652;DHT22;6899;51.546;6.912;2024-02-04T09:12:35;9.70;99.90
13652;DHT22;6899;51.546;6.912;2024-02-04T09:15:04;9.70;99.90
13652;DHT22;6899;51.546;6.912;2024-02-04T09:17:31;9.80;99.90
13652;DHT22;6899;51.546;6.912;2024-02-04T09:19:58;9.80;99.90
13652;DHT22;6899;51.546;6.912;2024-02-04T09:22:25;9.80;99.90
13652;DHT22;6899;51.546;6.912;2024-02-04T09:24:52;9.80;99.90
13652;DHT22;6899;51.546;6.912;2024-02-04T09:27:18;9.80;99.90
13652;DHT22;6899;51.546;6.912;2024-02-04T09:29:45;9.90;99.90
13652;DHT22;6899;51.546;6.912;2024-02-04T09:32:13;9.90;99.90
13652;DHT22;6899;51.546;6.912;2024-02-04T09:34:40;10.00;99.90
13652;DHT22;6899;51.546;6.912;2024-02-04T09:37:07;10.00;99.90
13652;DHT22;6899;51.546;6.912;2024-02-04T09:39:33;10.00;99.90
13652;DHT22;6899;51.546;6.912;2024-02-04T09:42:00;10.00;99.90
13652;DHT22;6899;51.546;6.912;2024-02-04T09:44:27;10.00;99.90
13652;DHT22;6899;51.546;6.912;2024-02-04T09:46:54;10.10;99.90
13652;DHT22;6899;51.546;6.912;2024-02-04T09:49:25;10.10;99.90
13652;DHT22;6899;51.546;6.912;2024-02-04T09:51:53;10.10;99.90
13652;DHT22;6899;51.546;6.912;2024-02-04T09:54:22;10.10;99.90
13652;DHT22;6899;51.546;6.912;2024-02-04T09:56:50;10.10;99.90
13652;DHT22;6899;51.546;6.912;2024-02-04T09:59:17;10.10;99.90
13652;DHT22;6899;51.546;6.912;2024-02-04T10:01:44;10.10;99.90
13652;DHT22;6899;51.546;6.912;2024-02-04T10:04:11;10.20;99.90
13652;DHT22;6899;51.546;6.912;2024-02-04T10:06:39;10.20;99.90
13652;DHT22;6899;51.546;6.912;2024-02-04T10:09:06;10.20;99.90
13652;DHT22;6899;51.546;6.912;2024-02-04T10:11:33;10.20;99.90
13652;DHT22;6899;51.546;6.912;2024-02-04T10:14:00;10.20;99.90
13652;DHT22;6899;51.546;6.912;2024-02-04T10:16:27;10.20;99.90
13652;DHT22;6899;51.546;6.912;2024-02-04T10:18:54;10.20;99.90
13652;DHT22;6899;51.546;6.912;2024-02-04T10:21:22;10.10;99.90
13652;DHT22;6899;51.546;6.912;2024-02-04T10:23:52;10.10;99.90
13652;DHT22;6899;51.546;6.912;2024-02-04T10:26:19;10.00;99.90
13652;DHT22;6899;51.546;6.912;2024-02-04T10:28:46;10.00;99.90
13652;DHT22;6899;51.546;6.912;2024-02-04T10:31:13;10.00;99.90
13652;DHT22;6899;51.546;6.912;2024-02-04T10:33:40;10.00;99.90
13652;DHT22;6899;51.546;6.912;2024-02-04T10:36:08;9.90;99.90
13652;DHT22;6899;51.546;6.912;2024-02-04T10:38:35;9.90;99.90
13652;DHT22;6899;51.546;6.912;2024-02-04T10:41:03;9.90;99.90
13652;DHT22;6899;51.546;6.912;2024-02-04T10:43:32;9.90;99.90
13652;DHT22;6899;51.546;6.912;2024-02-04T10:46:04;10.00;99.90
13652;DHT22;6899;51.546;6.912;2024-02-04T10:48:35;10.10;99.90
13652;DHT22;6899;51.546;6.912;2024-02-04T10:51:12;10.20;99.90
13652;DHT22;6899;51.546;6.912;2024-02-04T10:53:41;10.30;99.90
13652;DHT22;6899;51.546;6.912;2024-02-04T10:56:14;10.50;99.90
13652;DHT22;6899;51.546;6.912;2024-02-04T10:58:43;10.60;99.90
13652;DHT22;6899;51.546;6.912;2024-02-04T11:01:10;10.80;99.90
13652;DHT22;6899;51.546;6.912;2024-02-04T11:03:39;10.90;99.90
13652;DHT22;6899;51.546;6.912;2024-02-04T11:06:08;10.90;99.90
13652;DHT22;6899;51.546;6.912;2024-02-04T11:08:38;11.00;99.90
13652;DHT22;6899;51.546;6.912;2024-02-04T11:11:05;11.00;99.90
13652;DHT22;6899;51.546;6.912;2024-02-04T11:13:35;11.00;99.90
13652;DHT22;6899;51.546;6.912;2024-02-04T11:16:06;10.90;99.90
13652;DHT22;6899;51.546;6.912;2024-02-04T11:21:53;10.50;99.90
13652;DHT22;6899;51.546;6.912;2024-02-04T11:24:37;10.40;99.90
13652;DHT22;6899;51.546;6.912;2024-02-04T11:27:06;10.30;99.90
13652;DHT22;6899;51.546;6.912;2024-02-04T11:29:35;10.30;99.90
13652;DHT22;6899;51.546;6.912;2024-02-04T11:32:03;10.30;99.90
13652;DHT22;6899;51.546;6.912;2024-02-04T11:34:30;10.20;99.90
13652;DHT22;6899;51.546;6.912;2024-02-04T11:36:57;10.20;99.90
13652;DHT22;6899;51.546;6.912;2024-02-04T11:39:24;10.30;99.90
13652;DHT22;6899;51.546;6.912;2024-02-04T11:41:52;10.30;99.90
13652;DHT22;6899;51.546;6.912;2024-02-04T11:44:20;10.40;99.90
13652;DHT22;6899;51.546;6.912;2024-02-04T11:46:50;10.50;99.90
13652;DHT22;6899;51.546;6.912;2024-02-04T11:49:18;10.60;99.90
13652;DHT22;6899;51.546;6.912;2024-02-04T11:51:48;10.60;99.90
13652;DHT22;6899;51.546;6.912;2024-02-04T11:54:15;10.50;99.90
13652;DHT22;6899;51.546;6.912;2024-02-04T11:56:45;10.50;99.90
13652;DHT22;6899;51.546;6.912;2024-02-04T11:59:18;10.50;99.90
13652;DHT22;6899;51.546;6.912;2024-02-04T12:01:46;10.50;99.90
13652;DHT22;6899;51.546;6.912;2024-02-04T12:04:16;10.40;99.90
13652;DHT22;6899;51.546;6.912;2024-02-04T12:06:43;10.50;99.90
13652;DHT22;6899;51.546;6.912;2024-02-04T12:09:11;10.50;99.90
13652;DHT22;6899;51.546;6.912;2024-02-04T12:11:38;10.60;99.90
13652;DHT22;6899;51.546;6.912;2024-02-04T12:14:07;10.50;99.90
13652;DHT22;6899;51.546;6.912;2024-02-04T12:16:34;10.50;99.90
13652;DHT22;6899;51.546;6.912;2024-02-04T12:19:02;10.60;99.90
13652;DHT22;6899;51.546;6.912;2024-02-04T12:21:32;10.50;99.90
13652;DHT22;6899;51.546;6.912;2024-02-04T12:23:59;10.50;99.90
13652;DHT22;6899;51.546;6.912;2024-02-04T12:26:26;10.50;99.90
13652;DHT22;6899;51.546;6.912;2024-02-04T12:28:54;10.40;99.90
13652;DHT22;6899;51.546;6.912;2024-02-04T12:31:24;10.50;99.90
13652;DHT22;6899;51.546;6.912;2024-02-04T12:33:55;10.50;99.90
13652;DHT22;6899;51.546;6.912;2024-02-04T12:36:25;10.60;99.90
13652;DHT22;6899;51.546;6.912;2024-02-04T12:38:57;10.60;99.90
13652;DHT22;6899;51.546;6.912;2024-02-04T12:41:25;10.60;99.90
13652;DHT22;6899;51.546;6.912;2024-02-04T12:43:53;10.70;99.90
13652;DHT22;6899;51.546;6.912;2024-02-04T12:46:21;10.70;99.90
13652;DHT22;6899;51.546;6.912;2024-02-04T12:48:51;10.60;99.90
13652;DHT22;6899;51.546;6.912;2024-02-04T12:51:26;10.70;99.90
13652;DHT22;6899;51.546;6.912;2024-02-04T12:54:06;10.60;99.90
13652;DHT22;6899;51.546;6.912;2024-02-04T12:56:41;10.60;99.90
13652;DHT22;6899;51.546;6.912;2024-02-04T12:59:08;10.60;99.90
13652;DHT22;6899;51.546;6.912;2024-02-04T13:01:36;10.60;99.90
13652;DHT22;6899;51.546;6.912;2024-02-04T13:04:04;10.60;99.90
13652;DHT22;6899;51.546;6.912;2024-02-04T13:06:31;10.50;99.90
13652;DHT22;6899;51.546;6.912;2024-02-04T13:08:58;10.50;99.90
13652;DHT22;6899;51.546;6.912;2024-02-04T13:11:27;10.50;99.90
13652;DHT22;6899;51.546;6.912;2024-02-04T13:13:54;10.50;99.90
13652;DHT22;6899;51.546;6.912;2024-02-04T13:16:21;10.50;99.90
13652;DHT22;6899;51.546;6.912;2024-02-04T13:18:52;10.50;99.90
13652;DHT22;6899;51.546;6.912;2024-02-04T13:21:19;10.50;99.90
13652;DHT22;6899;51.546;6.912;2024-02-04T13:23:47;10.40;99.90
13652;DHT22;6899;51.546;6.912;2024-02-04T13:26:15;10.40;99.90
13652;DHT22;6899;51.546;6.912;2024-02-04T13:28:43;10.40;99.90
13652;DHT22;6899;51.546;6.912;2024-02-04T13:31:10;10.40;99.90
13652;DHT22;6899;51.546;6.912;2024-02-04T13:33:38;10.40;99.90
13652;DHT22;6899;51.546;6.912;2024-02-04T13:36:05;10.40;99.90
13652;DHT22;6899;51.546;6.912;2024-02-04T13:38:32;10.30;99.90
13652;DHT22;6899;51.546;6.912;2024-02-04T13:40:59;10.40;99.90
13652;DHT22;6899;51.546;6.912;2024-02-04T13:43:26;10.30;99.90
13652;DHT22;6899;51.546;6.912;2024-02-04T13:45:54;10.30;99.90
13652;DHT22;6899;51.546;6.912;2024-02-04T13:48:21;10.30;99.90
13652;DHT22;6899;51.546;6.912;2024-02-04T13:50:50;10.30;99.90
13652;DHT22;6899;51.546;6.912;2024-02-04T13:53:16;10.30;99.90
13652;DHT22;6899;51.546;6.912;2024-02-04T13:55:43;10.30;99.90
13652;DHT22;6899;51.546;6.912;2024-02-04T13:58:11;10.30;99.90
13652;DHT22;6899;51.546;6.912;2024-02-04T14:00:38;10.30;99.90
13652;DHT22;6899;51.546;6.912;2024-02-04T14:03:06;10.30;99.90
13652;DHT22;6899;51.546;6.912;2024-02-04T14:05:34;10.30;99.90
13652;DHT22;6899;51.546;6.912;2024-02-04T14:08:01;10.30;99.90
13652;DHT22;6899;51.546;6.912;2024-02-04T14:10:29;10.30;99.90
13652;DHT22;6899;51.546;6.912;2024-02-04T14:12:57;10.30;99.90
13652;DHT22;6899;51.546;6.912;2024-02-04T14:15:23;10.30;99.90
13652;DHT22;6899;51.546;6.912;2024-02-04T14:17:51;10.30;99.90
13652;DHT22;6899;51.546;6.912;2024-02-04T14:20:19;10.30;99.90
13652;DHT22;6899;51.546;6.912;2024-02-04T14:22:45;10.30;99.90
13652;DHT22;6899;51.546;6.912;2024-02-04T14:25:12;10.20;99.90
13652;DHT22;6899;51.546;6.912;2024-02-04T14:27:39;10.20;99.90
13652;DHT22;6899;51.546;6.912;2024-02-04T14:30:07;10.20;99.90
13652;DHT22;6899;51.546;6.912;2024-02-04T14:32:34;10.20;99.90
13652;DHT22;6899;51.546;6.912;2024-02-04T14:35:00;10.20;99.90
13652;DHT22;6899;51.546;6.912;2024-02-04T14:37:31;10.20;99.90
13652;DHT22;6899;51.546;6.912;2024-02-04T14:39:58;10.20;99.90
13652;DHT22;6899;51.546;6.912;2024-02-04T14:42:25;10.20;99.90
13652;DHT22;6899;51.546;6.912;2024-02-04T14:44:53;10.20;99.90
13652;DHT22;6899;51.546;6.912;2024-02-04T14:47:20;10.20;99.90
13652;DHT22;6899;51.546;6.912;2024-02-04T14:49:47;10.30;99.90
13652;DHT22;6899;51.546;6.912;2024-02-04T14:52:14;10.30;99.90
13652;DHT22;6899;51.546;6.912;2024-02-04T14:54:44;10.30;99.90
13652;DHT22;6899;51.546;6.912;2024-02-04T14:57:11;10.20;99.90
13652;DHT22;6899;51.546;6.912;2024-02-04T14:59:39;10.20;99.90
13652;DHT22;6899;51.546;6.912;2024-02-04T15:02:06;10.20;99.90
13652;DHT22;6899;51.546;6.912;2024-02-04T15:04:34;10.20;99.90
13652;DHT22;6899;51.546;6.912;2024-02-04T15:07:01;10.20;99.90
13652;DHT22;6899;51.546;6.912;2024-02-04T15:09:30;10.20;99.90
13652;DHT22;6899;51.546;6.912;2024-02-04T15:11:59;10.10;99.90
13652;DHT22;6899;51.546;6.912;2024-02-04T15:14:26;10.20;99.90
13652;DHT22;6899;51.546;6.912;2024-02-04T15:16:53;10.20;99.90
13652;DHT22;6899;51.546;6.912;2024-02-04T15:19:21;10.20;99.90
13652;DHT22;6899;51.546;6.912;2024-02-04T15:21:48;10.10;99.90
13652;DHT22;6899;51.546;6.912;2024-02-04T15:24:15;10.10;99.90
13652;DHT22;6899;51.546;6.912;2024-02-04T15:26:43;10.20;99.90
13652;DHT22;6899;51.546;6.912;2024-02-04T15:29:13;10.10;99.90
13652;DHT22;6899;51.546;6.912;2024-02-04T15:31:41;10.20;99.90
13652;DHT22;6899;51.546;6.912;2024-02-04T15:34:08;10.20;99.90
13652;DHT22;6899;51.546;6.912;2024-02-04T15:36:35;10.20;99.90
13652;DHT22;6899;51.546;6.912;2024-02-04T15:39:02;10.20;99.90
13652;DHT22;6899;51.546;6.912;2024-02-04T15:41:29;10.20;99.90
13652;DHT22;6899;51.546;6.912;2024-02-04T15:43:56;10.20;99.90
13652;DHT22;6899;51.546;6.912;2024-02-04T15:46:24;10.30;99.90
13652;DHT22;6899;51.546;6.912;2024-02-04T15:48:52;10.20;99.90
13652;DHT22;6899;51.546;6.912;2024-02-04T15:51:19;10.30;99.90
13652;DHT22;6899;51.546;6.912;2024-02-04T15:53:47;10.20;99.90
13652;DHT22;6899;51.546;6.912;2024-02-04T15:56:16;10.20;99.90
13652;DHT22;6899;51.546;6.912;2024-02-04T15:58:45;10.20;99.90
13652;DHT22;6899;51.546;6.912;2024-02-04T16:01:15;10.20;99.90